sensor_id;sensor_type;location;lat;lon;timestamp;P1;durP1;ratioP1;P2;durP2;ratioP2
4375;SDS011;2202;50.866;12.750;2023-07-16T00:01:02;5.23;;;2.23;;
4375;SDS011;2202;50.866;12.750;2023-07-16T00:03:30;3.17;;;2.10;;
4375;SDS011;2202;50.866;12.750;2023-07-16T00:05:57;3.97;;;2.00;;
4375;SDS011;2202;50.866;12.750;2023-07-16T00:08:23;4.03;;;2.40;;
4375;SDS011;2202;50.866;12.750;2023-07-16T00:10:51;3.70;;;2.53;;
4375;SDS011;2202;50.866;12.750;2023-07-16T00:13:18;5.37;;;2.70;;
4375;SDS011;2202;50.866;12.750;2023-07-16T00:15:45;6.90;;;2.90;;
4375;SDS011;2202;50.866;12.750;2023-07-16T00:18:12;6.87;;;2.63;;
4375;SDS011;2202;50.866;12.750;2023-07-16T00:20:39;6.73;;;2.70;;
4375;SDS011;2202;50.866;12.750;2023-07-16T00:23:06;9.50;;;3.20;;
4375;SDS011;2202;50.866;12.750;2023-07-16T00:25:32;7.83;;;2.80;;
4375;SDS011;2202;50.866;12.750;2023-07-16T00:28:01;7.13;;;3.33;;
4375;SDS011;2202;50.866;12.750;2023-07-16T00:30:28;5.53;;;2.50;;
4375;SDS011;2202;50.866;12.750;2023-07-16T00:32:55;9.60;;;3.60;;
4375;SDS011;2202;50.866;12.750;2023-07-16T00:35:22;9.20;;;2.87;;
4375;SDS011;2202;50.866;12.750;2023-07-16T00:37:49;6.53;;;3.43;;
4375;SDS011;2202;50.866;12.750;2023-07-16T00:40:16;6.50;;;3.30;;
4375;SDS011;2202;50.866;12.750;2023-07-16T00:42:43;6.67;;;3.03;;
4375;SDS011;2202;50.866;12.750;2023-07-16T00:47:47;7.17;;;2.83;;
4375;SDS011;2202;50.866;12.750;2023-07-16T00:50:14;7.30;;;3.13;;
4375;SDS011;2202;50.866;12.750;2023-07-16T00:52:40;6.40;;;3.30;;
4375;SDS011;2202;50.866;12.750;2023-07-16T00:55:09;10.17;;;3.57;;
4375;SDS011;2202;50.866;12.750;2023-07-16T00:57:36;6.63;;;3.70;;
4375;SDS011;2202;50.866;12.750;2023-07-16T01:00:04;7.47;;;3.83;;
4375;SDS011;2202;50.866;12.750;2023-07-16T01:02:33;8.70;;;3.90;;
4375;SDS011;2202;50.866;12.750;2023-07-16T01:05:01;7.10;;;3.43;;
4375;SDS011;2202;50.866;12.750;2023-07-16T01:07:29;10.23;;;4.10;;
4375;SDS011;2202;50.866;12.750;2023-07-16T01:09:57;9.77;;;3.00;;
4375;SDS011;2202;50.866;12.750;2023-07-16T01:12:25;7.77;;;4.10;;
4375;SDS011;2202;50.866;12.750;2023-07-16T01:14:53;7.60;;;3.10;;
4375;SDS011;2202;50.866;12.750;2023-07-16T01:17:22;10.80;;;3.20;;
4375;SDS011;2202;50.866;12.750;2023-07-16T01:19:49;8.13;;;3.13;;
4375;SDS011;2202;50.866;12.750;2023-07-16T01:22:27;10.87;;;4.03;;
4375;SDS011;2202;50.866;12.750;2023-07-16T01:25:09;10.23;;;3.40;;
4375;SDS011;2202;50.866;12.750;2023-07-16T01:28:01;9.10;;;4.33;;
4375;SDS011;2202;50.866;12.750;2023-07-16T01:30:40;7.37;;;4.03;;
4375;SDS011;2202;50.866;12.750;2023-07-16T01:33:10;9.23;;;4.17;;
4375;SDS011;2202;50.866;12.750;2023-07-16T01:35:39;10.40;;;4.77;;
4375;SDS011;2202;50.866;12.750;2023-07-16T01:38:08;8.93;;;4.23;;
4375;SDS011;2202;50.866;12.750;2023-07-16T01:40:36;10.13;;;4.80;;
4375;SDS011;2202;50.866;12.750;2023-07-16T01:43:03;10.53;;;4.77;;
4375;SDS011;2202;50.866;12.750;2023-07-16T01:45:30;15.40;;;5.00;;
4375;SDS011;2202;50.866;12.750;2023-07-16T01:48:01;9.90;;;5.07;;
4375;SDS011;2202;50.866;12.750;2023-07-16T01:50:39;9.20;;;5.10;;
4375;SDS011;2202;50.866;12.750;2023-07-16T01:53:05;9.80;;;5.40;;
4375;SDS011;2202;50.866;12.750;2023-07-16T01:55:32;8.20;;;4.53;;
4375;SDS011;2202;50.866;12.750;2023-07-16T01:57:59;7.57;;;4.97;;
4375;SDS011;2202;50.866;12.750;2023-07-16T02:00:26;8.13;;;4.63;;
4375;SDS011;2202;50.866;12.750;2023-07-16T02:02:53;8.90;;;4.17;;
4375;SDS011;2202;50.866;12.750;2023-07-16T02:05:21;7.53;;;3.87;;
4375;SDS011;2202;50.866;12.750;2023-07-16T02:07:48;8.73;;;4.40;;
4375;SDS011;2202;50.866;12.750;2023-07-16T02:10:15;8.90;;;4.40;;
4375;SDS011;2202;50.866;12.750;2023-07-16T02:12:41;8.10;;;4.50;;
4375;SDS011;2202;50.866;12.750;2023-07-16T02:15:09;10.27;;;4.70;;
4375;SDS011;2202;50.866;12.750;2023-07-16T02:17:36;8.83;;;4.57;;
4375;SDS011;2202;50.866;12.750;2023-07-16T02:20:03;9.70;;;5.47;;
4375;SDS011;2202;50.866;12.750;2023-07-16T02:22:33;7.93;;;4.53;;
4375;SDS011;2202;50.866;12.750;2023-07-16T02:25:01;7.57;;;4.50;;
4375;SDS011;2202;50.866;12.750;2023-07-16T02:27:29;8.80;;;4.10;;
4375;SDS011;2202;50.866;12.750;2023-07-16T02:29:55;7.40;;;4.07;;
4375;SDS011;2202;50.866;12.750;2023-07-16T02:32:22;7.80;;;4.17;;
4375;SDS011;2202;50.866;12.750;2023-07-16T02:34:49;6.37;;;3.57;;
4375;SDS011;2202;50.866;12.750;2023-07-16T02:37:16;8.70;;;3.93;;
4375;SDS011;2202;50.866;12.750;2023-07-16T02:39:45;6.37;;;3.73;;
4375;SDS011;2202;50.866;12.750;2023-07-16T02:42:12;9.53;;;4.30;;
4375;SDS011;2202;50.866;12.750;2023-07-16T02:44:39;7.40;;;3.67;;
4375;SDS011;2202;50.866;12.750;2023-07-16T02:47:09;6.80;;;4.33;;
4375;SDS011;2202;50.866;12.750;2023-07-16T02:49:36;7.00;;;3.50;;
4375;SDS011;2202;50.866;12.750;2023-07-16T02:52:04;8.30;;;4.33;;
4375;SDS011;2202;50.866;12.750;2023-07-16T02:54:31;9.40;;;4.80;;
4375;SDS011;2202;50.866;12.750;2023-07-16T02:56:59;6.80;;;4.47;;
4375;SDS011;2202;50.866;12.750;2023-07-16T02:59:26;7.47;;;4.70;;
4375;SDS011;2202;50.866;12.750;2023-07-16T03:01:53;6.70;;;4.30;;
4375;SDS011;2202;50.866;12.750;2023-07-16T03:04:20;7.53;;;4.90;;
4375;SDS011;2202;50.866;12.750;2023-07-16T03:06:47;6.10;;;4.47;;
4375;SDS011;2202;50.866;12.750;2023-07-16T03:09:14;6.63;;;4.53;;
4375;SDS011;2202;50.866;12.750;2023-07-16T03:11:41;6.53;;;4.57;;
4375;SDS011;2202;50.866;12.750;2023-07-16T03:14:09;6.40;;;4.47;;
4375;SDS011;2202;50.866;12.750;2023-07-16T03:16:36;7.37;;;4.07;;
4375;SDS011;2202;50.866;12.750;2023-07-16T03:19:02;4.90;;;3.70;;
4375;SDS011;2202;50.866;12.750;2023-07-16T03:21:29;6.00;;;4.47;;
4375;SDS011;2202;50.866;12.750;2023-07-16T03:23:56;7.67;;;4.23;;
4375;SDS011;2202;50.866;12.750;2023-07-16T03:26:23;6.00;;;4.20;;
4375;SDS011;2202;50.866;12.750;2023-07-16T03:28:50;6.70;;;4.40;;
4375;SDS011;2202;50.866;12.750;2023-07-16T03:31:18;5.80;;;4.13;;
4375;SDS011;2202;50.866;12.750;2023-07-16T03:33:45;6.03;;;4.30;;
4375;SDS011;2202;50.866;12.750;2023-07-16T03:36:11;6.17;;;3.97;;
4375;SDS011;2202;50.866;12.750;2023-07-16T03:38:38;6.80;;;4.47;;
4375;SDS011;2202;50.866;12.750;2023-07-16T03:41:05;7.07;;;5.30;;
4375;SDS011;2202;50.866;12.750;2023-07-16T03:43:32;7.13;;;4.40;;
4375;SDS011;2202;50.866;12.750;2023-07-16T03:45:59;6.80;;;4.60;;
4375;SDS011;2202;50.866;12.750;2023-07-16T03:48:27;6.40;;;4.77;;
4375;SDS011;2202;50.866;12.750;2023-07-16T03:50:54;6.00;;;4.20;;
4375;SDS011;2202;50.866;12.750;2023-07-16T03:53:21;6.40;;;3.97;;
4375;SDS011;2202;50.866;12.750;2023-07-16T03:55:47;4.97;;;4.10;;
4375;SDS011;2202;50.866;12.750;2023-07-16T03:58:14;5.17;;;3.97;;
4375;SDS011;2202;50.866;12.750;2023-07-16T04:00:41;7.27;;;4.77;;
4375;SDS011;2202;50.866;12.750;2023-07-16T04:03:09;5.40;;;4.37;;
4375;SDS011;2202;50.866;12.750;2023-07-16T04:05:37;5.70;;;4.23;;
4375;SDS011;2202;50.866;12.750;2023-07-16T04:08:04;5.13;;;4.63;;
4375;SDS011;2202;50.866;12.750;2023-07-16T04:10:31;10.80;;;4.73;;
4375;SDS011;2202;50.866;12.750;2023-07-16T04:12:58;5.07;;;4.00;;
4375;SDS011;2202;50.866;12.750;2023-07-16T04:15:25;4.77;;;4.27;;
4375;SDS011;2202;50.866;12.750;2023-07-16T04:17:51;4.40;;;4.00;;
4375;SDS011;2202;50.866;12.750;2023-07-16T04:20:18;7.13;;;4.67;;
4375;SDS011;2202;50.866;12.750;2023-07-16T04:22:46;5.53;;;4.10;;
4375;SDS011;2202;50.866;12.750;2023-07-16T04:25:13;4.73;;;3.57;;
4375;SDS011;2202;50.866;12.750;2023-07-16T04:27:41;4.43;;;3.23;;
4375;SDS011;2202;50.866;12.750;2023-07-16T04:30:09;6.80;;;3.90;;
4375;SDS011;2202;50.866;12.750;2023-07-16T04:32:36;8.83;;;3.80;;
4375;SDS011;2202;50.866;12.750;2023-07-16T04:35:03;7.37;;;3.97;;
4375;SDS011;2202;50.866;12.750;2023-07-16T04:37:31;5.10;;;3.73;;
4375;SDS011;2202;50.866;12.750;2023-07-16T04:39:59;5.63;;;3.40;;
4375;SDS011;2202;50.866;12.750;2023-07-16T04:42:26;7.40;;;3.13;;
4375;SDS011;2202;50.866;12.750;2023-07-16T04:44:52;8.00;;;4.50;;
4375;SDS011;2202;50.866;12.750;2023-07-16T04:47:19;7.50;;;3.67;;
4375;SDS011;2202;50.866;12.750;2023-07-16T04:49:46;6.30;;;4.00;;
4375;SDS011;2202;50.866;12.750;2023-07-16T04:52:13;5.50;;;3.47;;
4375;SDS011;2202;50.866;12.750;2023-07-16T04:54:40;5.10;;;3.63;;
4375;SDS011;2202;50.866;12.750;2023-07-16T04:57:08;11.47;;;4.20;;
4375;SDS011;2202;50.866;12.750;2023-07-16T04:59:35;4.50;;;3.40;;
4375;SDS011;2202;50.866;12.750;2023-07-16T05:02:02;5.23;;;4.37;;
4375;SDS011;2202;50.866;12.750;2023-07-16T05:04:31;5.57;;;3.87;;
4375;SDS011;2202;50.866;12.750;2023-07-16T05:06:57;5.63;;;4.87;;
4375;SDS011;2202;50.866;12.750;2023-07-16T05:09:24;8.57;;;5.13;;
4375;SDS011;2202;50.866;12.750;2023-07-16T05:11:51;4.93;;;4.33;;
4375;SDS011;2202;50.866;12.750;2023-07-16T05:14:19;4.63;;;4.23;;
4375;SDS011;2202;50.866;12.750;2023-07-16T05:16:46;6.40;;;4.53;;
4375;SDS011;2202;50.866;12.750;2023-07-16T05:19:13;5.50;;;3.60;;
4375;SDS011;2202;50.866;12.750;2023-07-16T05:21:40;6.10;;;4.13;;
4375;SDS011;2202;50.866;12.750;2023-07-16T05:24:07;4.83;;;3.40;;
4375;SDS011;2202;50.866;12.750;2023-07-16T05:26:33;4.50;;;3.30;;
4375;SDS011;2202;50.866;12.750;2023-07-16T05:29:00;9.80;;;3.40;;
4375;SDS011;2202;50.866;12.750;2023-07-16T05:31:28;5.47;;;3.50;;
4375;SDS011;2202;50.866;12.750;2023-07-16T05:33:55;8.13;;;3.10;;
4375;SDS011;2202;50.866;12.750;2023-07-16T05:36:22;4.90;;;3.10;;
4375;SDS011;2202;50.866;12.750;2023-07-16T05:38:49;8.30;;;3.20;;
4375;SDS011;2202;50.866;12.750;2023-07-16T05:41:16;6.33;;;3.57;;
4375;SDS011;2202;50.866;12.750;2023-07-16T05:43:42;6.97;;;3.87;;
4375;SDS011;2202;50.866;12.750;2023-07-16T05:46:09;8.17;;;3.40;;
4375;SDS011;2202;50.866;12.750;2023-07-16T05:48:37;5.30;;;3.37;;
4375;SDS011;2202;50.866;12.750;2023-07-16T05:51:05;6.30;;;3.50;;
4375;SDS011;2202;50.866;12.750;2023-07-16T05:53:31;6.63;;;3.43;;
4375;SDS011;2202;50.866;12.750;2023-07-16T05:55:58;10.03;;;3.33;;
4375;SDS011;2202;50.866;12.750;2023-07-16T05:58:25;6.17;;;3.10;;
4375;SDS011;2202;50.866;12.750;2023-07-16T06:00:52;11.20;;;3.40;;
4375;SDS011;2202;50.866;12.750;2023-07-16T06:03:19;6.77;;;4.40;;
4375;SDS011;2202;50.866;12.750;2023-07-16T06:05:47;7.63;;;3.77;;
4375;SDS011;2202;50.866;12.750;2023-07-16T06:08:14;6.90;;;3.80;;
4375;SDS011;2202;50.866;12.750;2023-07-16T06:10:41;6.90;;;3.40;;
4375;SDS011;2202;50.866;12.750;2023-07-16T06:13:08;6.90;;;3.43;;
4375;SDS011;2202;50.866;12.750;2023-07-16T06:15:34;7.07;;;3.00;;
4375;SDS011;2202;50.866;12.750;2023-07-16T06:18:02;6.93;;;3.20;;
4375;SDS011;2202;50.866;12.750;2023-07-16T06:20:29;8.00;;;3.80;;
4375;SDS011;2202;50.866;12.750;2023-07-16T06:22:57;7.03;;;3.93;;
4375;SDS011;2202;50.866;12.750;2023-07-16T06:25:25;6.77;;;3.30;;
4375;SDS011;2202;50.866;12.750;2023-07-16T06:27:51;9.03;;;3.60;;
4375;SDS011;2202;50.866;12.750;2023-07-16T06:30:18;6.17;;;3.00;;
4375;SDS011;2202;50.866;12.750;2023-07-16T06:32:45;8.27;;;3.80;;
4375;SDS011;2202;50.866;12.750;2023-07-16T06:35:12;8.30;;;4.40;;
4375;SDS011;2202;50.866;12.750;2023-07-16T06:37:39;9.83;;;3.20;;
4375;SDS011;2202;50.866;12.750;2023-07-16T06:40:07;7.83;;;3.37;;
4375;SDS011;2202;50.866;12.750;2023-07-16T06:42:34;7.30;;;3.80;;
4375;SDS011;2202;50.866;12.750;2023-07-16T06:45:01;6.20;;;3.13;;
4375;SDS011;2202;50.866;12.750;2023-07-16T06:47:28;5.70;;;3.00;;
4375;SDS011;2202;50.866;12.750;2023-07-16T06:49:55;5.80;;;3.37;;
4375;SDS011;2202;50.866;12.750;2023-07-16T06:52:22;5.30;;;3.00;;
4375;SDS011;2202;50.866;12.750;2023-07-16T06:54:52;5.97;;;2.30;;
4375;SDS011;2202;50.866;12.750;2023-07-16T06:57:21;7.17;;;2.97;;
4375;SDS011;2202;50.866;12.750;2023-07-16T06:59:48;7.50;;;3.60;;
4375;SDS011;2202;50.866;12.750;2023-07-16T07:02:15;5.30;;;3.33;;
4375;SDS011;2202;50.866;12.750;2023-07-16T07:04:43;6.17;;;3.13;;
4375;SDS011;2202;50.866;12.750;2023-07-16T07:07:10;5.10;;;3.20;;
4375;SDS011;2202;50.866;12.750;2023-07-16T07:09:37;5.67;;;3.13;;
4375;SDS011;2202;50.866;12.750;2023-07-16T07:12:04;6.70;;;3.70;;
4375;SDS011;2202;50.866;12.750;2023-07-16T07:14:33;4.40;;;3.03;;
4375;SDS011;2202;50.866;12.750;2023-07-16T07:17:00;6.50;;;3.23;;
4375;SDS011;2202;50.866;12.750;2023-07-16T07:19:27;4.90;;;3.20;;
4375;SDS011;2202;50.866;12.750;2023-07-16T07:21:54;5.17;;;3.37;;
4375;SDS011;2202;50.866;12.750;2023-07-16T07:24:21;5.87;;;3.90;;
4375;SDS011;2202;50.866;12.750;2023-07-16T07:26:47;6.97;;;3.30;;
4375;SDS011;2202;50.866;12.750;2023-07-16T07:29:14;5.90;;;3.17;;
4375;SDS011;2202;50.866;12.750;2023-07-16T07:31:42;5.77;;;3.63;;
4375;SDS011;2202;50.866;12.750;2023-07-16T07:34:09;4.70;;;3.30;;
4375;SDS011;2202;50.866;12.750;2023-07-16T07:36:36;3.80;;;2.90;;
4375;SDS011;2202;50.866;12.750;2023-07-16T07:39:03;4.80;;;2.77;;
4375;SDS011;2202;50.866;12.750;2023-07-16T07:41:31;4.40;;;3.17;;
4375;SDS011;2202;50.866;12.750;2023-07-16T07:43:57;5.17;;;2.60;;
4375;SDS011;2202;50.866;12.750;2023-07-16T07:46:24;4.03;;;3.17;;
4375;SDS011;2202;50.866;12.750;2023-07-16T07:48:53;3.90;;;3.23;;
4375;SDS011;2202;50.866;12.750;2023-07-16T07:51:20;6.40;;;3.47;;
4375;SDS011;2202;50.866;12.750;2023-07-16T07:53:47;5.43;;;2.90;;
4375;SDS011;2202;50.866;12.750;2023-07-16T07:56:13;6.57;;;2.90;;
4375;SDS011;2202;50.866;12.750;2023-07-16T07:58:40;4.23;;;2.97;;
4375;SDS011;2202;50.866;12.750;2023-07-16T08:01:07;4.83;;;3.73;;
4375;SDS011;2202;50.866;12.750;2023-07-16T08:03:34;4.57;;;2.70;;
4375;SDS011;2202;50.866;12.750;2023-07-16T08:06:03;9.63;;;2.90;;
4375;SDS011;2202;50.866;12.750;2023-07-16T08:08:29;4.50;;;2.90;;
4375;SDS011;2202;50.866;12.750;2023-07-16T08:10:56;5.30;;;3.33;;
4375;SDS011;2202;50.866;12.750;2023-07-16T08:13:23;3.57;;;3.03;;
4375;SDS011;2202;50.866;12.750;2023-07-16T08:15:50;4.50;;;2.80;;
4375;SDS011;2202;50.866;12.750;2023-07-16T08:18:17;4.30;;;3.10;;
4375;SDS011;2202;50.866;12.750;2023-07-16T08:20:44;4.50;;;2.93;;
4375;SDS011;2202;50.866;12.750;2023-07-16T08:23:13;6.03;;;3.23;;
4375;SDS011;2202;50.866;12.750;2023-07-16T08:25:40;4.00;;;2.97;;
4375;SDS011;2202;50.866;12.750;2023-07-16T08:28:07;6.07;;;2.97;;
4375;SDS011;2202;50.866;12.750;2023-07-16T08:30:35;4.63;;;3.10;;
4375;SDS011;2202;50.866;12.750;2023-07-16T08:33:01;3.30;;;2.60;;
4375;SDS011;2202;50.866;12.750;2023-07-16T08:35:28;3.80;;;2.57;;
4375;SDS011;2202;50.866;12.750;2023-07-16T08:37:55;3.33;;;3.03;;
4375;SDS011;2202;50.866;12.750;2023-07-16T08:40:23;6.90;;;3.03;;
4375;SDS011;2202;50.866;12.750;2023-07-16T08:42:52;3.83;;;2.33;;
4375;SDS011;2202;50.866;12.750;2023-07-16T08:45:20;4.70;;;2.40;;
4375;SDS011;2202;50.866;12.750;2023-07-16T08:47:48;6.57;;;2.80;;
4375;SDS011;2202;50.866;12.750;2023-07-16T08:50:15;5.17;;;2.63;;
4375;SDS011;2202;50.866;12.750;2023-07-16T08:52:44;4.00;;;2.87;;
4375;SDS011;2202;50.866;12.750;2023-07-16T08:55:11;3.93;;;3.00;;
4375;SDS011;2202;50.866;12.750;2023-07-16T08:57:40;3.93;;;2.60;;
4375;SDS011;2202;50.866;12.750;2023-07-16T09:00:08;3.63;;;2.80;;
4375;SDS011;2202;50.866;12.750;2023-07-16T09:02:36;3.60;;;2.50;;
4375;SDS011;2202;50.866;12.750;2023-07-16T09:05:03;4.73;;;2.73;;
4375;SDS011;2202;50.866;12.750;2023-07-16T09:07:31;4.27;;;2.77;;
4375;SDS011;2202;50.866;12.750;2023-07-16T09:09:57;2.60;;;2.40;;
4375;SDS011;2202;50.866;12.750;2023-07-16T09:12:25;4.93;;;2.73;;
4375;SDS011;2202;50.866;12.750;2023-07-16T09:14:53;3.17;;;2.77;;
4375;SDS011;2202;50.866;12.750;2023-07-16T09:17:21;4.80;;;3.30;;
4375;SDS011;2202;50.866;12.750;2023-07-16T09:19:49;4.40;;;3.10;;
4375;SDS011;2202;50.866;12.750;2023-07-16T09:22:16;3.10;;;2.53;;
4375;SDS011;2202;50.866;12.750;2023-07-16T09:24:44;4.07;;;3.50;;
4375;SDS011;2202;50.866;12.750;2023-07-16T09:27:12;3.50;;;3.20;;
4375;SDS011;2202;50.866;12.750;2023-07-16T09:29:39;4.73;;;2.77;;
4375;SDS011;2202;50.866;12.750;2023-07-16T09:32:08;5.97;;;2.80;;
4375;SDS011;2202;50.866;12.750;2023-07-16T09:34:35;3.40;;;3.10;;
4375;SDS011;2202;50.866;12.750;2023-07-16T09:37:02;5.23;;;3.10;;
4375;SDS011;2202;50.866;12.750;2023-07-16T09:39:30;3.00;;;2.80;;
4375;SDS011;2202;50.866;12.750;2023-07-16T09:41:58;3.03;;;2.70;;
4375;SDS011;2202;50.866;12.750;2023-07-16T09:44:25;3.00;;;2.80;;
4375;SDS011;2202;50.866;12.750;2023-07-16T09:46:53;5.33;;;2.90;;
4375;SDS011;2202;50.866;12.750;2023-07-16T09:49:21;3.60;;;3.30;;
4375;SDS011;2202;50.866;12.750;2023-07-16T09:51:48;3.00;;;2.50;;
4375;SDS011;2202;50.866;12.750;2023-07-16T09:54:19;3.30;;;3.00;;
4375;SDS011;2202;50.866;12.750;2023-07-16T09:56:47;9.33;;;3.47;;
4375;SDS011;2202;50.866;12.750;2023-07-16T09:59:17;5.77;;;4.07;;
4375;SDS011;2202;50.866;12.750;2023-07-16T10:01:48;4.37;;;3.07;;
4375;SDS011;2202;50.866;12.750;2023-07-16T10:04:16;3.70;;;3.03;;
4375;SDS011;2202;50.866;12.750;2023-07-16T10:06:55;7.57;;;3.10;;
4375;SDS011;2202;50.866;12.750;2023-07-16T10:09:31;7.40;;;3.53;;
4375;SDS011;2202;50.866;12.750;2023-07-16T10:12:07;3.57;;;3.27;;
4375;SDS011;2202;50.866;12.750;2023-07-16T10:14:41;4.33;;;3.37;;
4375;SDS011;2202;50.866;12.750;2023-07-16T10:17:12;4.30;;;3.20;;
4375;SDS011;2202;50.866;12.750;2023-07-16T10:19:50;3.43;;;3.13;;
4375;SDS011;2202;50.866;12.750;2023-07-16T10:22:30;4.10;;;3.30;;
4375;SDS011;2202;50.866;12.750;2023-07-16T10:24:58;4.50;;;3.40;;
4375;SDS011;2202;50.866;12.750;2023-07-16T10:27:29;5.60;;;4.83;;
4375;SDS011;2202;50.866;12.750;2023-07-16T10:29:57;5.50;;;3.67;;
4375;SDS011;2202;50.866;12.750;2023-07-16T10:32:26;7.17;;;3.63;;
4375;SDS011;2202;50.866;12.750;2023-07-16T10:34:54;4.00;;;3.60;;
4375;SDS011;2202;50.866;12.750;2023-07-16T10:37:22;3.50;;;3.20;;
4375;SDS011;2202;50.866;12.750;2023-07-16T10:39:50;4.57;;;3.70;;
4375;SDS011;2202;50.866;12.750;2023-07-16T10:42:18;3.90;;;3.60;;
4375;SDS011;2202;50.866;12.750;2023-07-16T10:44:48;4.70;;;3.30;;
4375;SDS011;2202;50.866;12.750;2023-07-16T10:47:19;4.33;;;3.20;;
4375;SDS011;2202;50.866;12.750;2023-07-16T10:49:48;4.17;;;3.77;;
4375;SDS011;2202;50.866;12.750;2023-07-16T10:52:17;3.70;;;3.37;;
4375;SDS011;2202;50.866;12.750;2023-07-16T10:54:45;6.47;;;3.70;;
4375;SDS011;2202;50.866;12.750;2023-07-16T10:57:12;3.67;;;3.37;;
4375;SDS011;2202;50.866;12.750;2023-07-16T10:59:41;6.13;;;3.60;;
4375;SDS011;2202;50.866;12.750;2023-07-16T11:02:10;4.57;;;3.40;;
4375;SDS011;2202;50.866;12.750;2023-07-16T11:04:37;5.23;;;3.53;;
4375;SDS011;2202;50.866;12.750;2023-07-16T11:07:05;3.80;;;3.50;;
4375;SDS011;2202;50.866;12.750;2023-07-16T11:09:34;5.43;;;3.27;;
4375;SDS011;2202;50.866;12.750;2023-07-16T11:12:09;5.80;;;3.97;;
4375;SDS011;2202;50.866;12.750;2023-07-16T11:14:38;7.17;;;3.53;;
4375;SDS011;2202;50.866;12.750;2023-07-16T11:17:08;7.80;;;3.23;;
4375;SDS011;2202;50.866;12.750;2023-07-16T11:19:35;4.60;;;3.60;;
4375;SDS011;2202;50.866;12.750;2023-07-16T11:22:04;3.80;;;3.50;;
4375;SDS011;2202;50.866;12.750;2023-07-16T11:24:38;5.17;;;3.43;;
4375;SDS011;2202;50.866;12.750;2023-07-16T11:27:06;8.63;;;3.03;;
4375;SDS011;2202;50.866;12.750;2023-07-16T11:29:44;3.73;;;3.40;;
4375;SDS011;2202;50.866;12.750;2023-07-16T11:32:12;5.87;;;3.40;;
4375;SDS011;2202;50.866;12.750;2023-07-16T11:34:51;4.67;;;3.27;;
4375;SDS011;2202;50.866;12.750;2023-07-16T11:37:19;5.90;;;3.23;;
4375;SDS011;2202;50.866;12.750;2023-07-16T11:39:47;3.20;;;2.53;;
4375;SDS011;2202;50.866;12.750;2023-07-16T11:42:17;7.93;;;3.30;;
4375;SDS011;2202;50.866;12.750;2023-07-16T11:44:48;3.93;;;3.00;;
4375;SDS011;2202;50.866;12.750;2023-07-16T11:47:15;3.13;;;2.50;;
4375;SDS011;2202;50.866;12.750;2023-07-16T11:49:42;3.10;;;2.80;;
4375;SDS011;2202;50.866;12.750;2023-07-16T11:52:09;3.60;;;2.70;;
4375;SDS011;2202;50.866;12.750;2023-07-16T11:54:36;6.90;;;3.00;;
4375;SDS011;2202;50.866;12.750;2023-07-16T11:57:03;3.97;;;3.00;;
4375;SDS011;2202;50.866;12.750;2023-07-16T11:59:32;3.97;;;3.27;;
4375;SDS011;2202;50.866;12.750;2023-07-16T12:01:58;4.17;;;3.00;;
4375;SDS011;2202;50.866;12.750;2023-07-16T12:04:26;3.57;;;3.27;;
4375;SDS011;2202;50.866;12.750;2023-07-16T12:06:53;3.67;;;2.73;;
4375;SDS011;2202;50.866;12.750;2023-07-16T12:09:20;5.17;;;3.30;;
4375;SDS011;2202;50.866;12.750;2023-07-16T12:11:46;5.50;;;2.90;;
4375;SDS011;2202;50.866;12.750;2023-07-16T12:14:13;6.73;;;3.20;;
4375;SDS011;2202;50.866;12.750;2023-07-16T12:16:41;3.90;;;2.60;;
4375;SDS011;2202;50.866;12.750;2023-07-16T12:19:08;4.93;;;2.83;;
4375;SDS011;2202;50.866;12.750;2023-07-16T12:21:36;3.40;;;3.00;;
4375;SDS011;2202;50.866;12.750;2023-07-16T12:24:03;9.57;;;3.53;;
4375;SDS011;2202;50.866;12.750;2023-07-16T12:26:30;4.57;;;2.17;;
4375;SDS011;2202;50.866;12.750;2023-07-16T12:28:57;2.90;;;2.60;;
4375;SDS011;2202;50.866;12.750;2023-07-16T12:31:24;3.90;;;3.20;;
4375;SDS011;2202;50.866;12.750;2023-07-16T12:33:52;3.83;;;3.53;;
4375;SDS011;2202;50.866;12.750;2023-07-16T12:36:19;4.43;;;3.00;;
4375;SDS011;2202;50.866;12.750;2023-07-16T12:38:46;3.53;;;3.00;;
4375;SDS011;2202;50.866;12.750;2023-07-16T12:41:13;5.17;;;3.17;;
4375;SDS011;2202;50.866;12.750;2023-07-16T12:43:41;4.30;;;2.93;;
4375;SDS011;2202;50.866;12.750;2023-07-16T12:46:08;4.53;;;3.37;;
4375;SDS011;2202;50.866;12.750;2023-07-16T12:48:35;4.00;;;2.50;;
4375;SDS011;2202;50.866;12.750;2023-07-16T12:51:03;4.57;;;3.17;;
4375;SDS011;2202;50.866;12.750;2023-07-16T12:53:30;5.73;;;3.33;;
4375;SDS011;2202;50.866;12.750;2023-07-16T12:55:57;3.80;;;2.47;;
4375;SDS011;2202;50.866;12.750;2023-07-16T12:58:23;2.20;;;1.87;;
4375;SDS011;2202;50.866;12.750;2023-07-16T13:00:50;2.83;;;2.50;;
4375;SDS011;2202;50.866;12.750;2023-07-16T13:03:17;6.33;;;3.40;;
4375;SDS011;2202;50.866;12.750;2023-07-16T13:05:46;5.10;;;3.80;;
4375;SDS011;2202;50.866;12.750;2023-07-16T13:08:15;6.73;;;2.67;;
4375;SDS011;2202;50.866;12.750;2023-07-16T13:10:41;6.10;;;2.87;;
4375;SDS011;2202;50.866;12.750;2023-07-16T13:13:08;4.53;;;2.40;;
4375;SDS011;2202;50.866;12.750;2023-07-16T13:15:35;8.17;;;2.50;;
4375;SDS011;2202;50.866;12.750;2023-07-16T13:18:02;5.20;;;2.43;;
4375;SDS011;2202;50.866;12.750;2023-07-16T13:20:29;3.47;;;2.90;;
4375;SDS011;2202;50.866;12.750;2023-07-16T13:22:56;4.50;;;3.23;;
4375;SDS011;2202;50.866;12.750;2023-07-16T13:25:24;5.50;;;2.80;;
4375;SDS011;2202;50.866;12.750;2023-07-16T13:27:51;3.20;;;2.60;;
4375;SDS011;2202;50.866;12.750;2023-07-16T13:30:19;3.20;;;2.70;;
4375;SDS011;2202;50.866;12.750;2023-07-16T13:32:46;3.53;;;3.20;;
4375;SDS011;2202;50.866;12.750;2023-07-16T13:35:13;3.10;;;2.70;;
4375;SDS011;2202;50.866;12.750;2023-07-16T13:37:41;2.70;;;2.47;;
4375;SDS011;2202;50.866;12.750;2023-07-16T13:40:08;3.70;;;3.10;;
4375;SDS011;2202;50.866;12.750;2023-07-16T13:42:36;5.50;;;2.70;;
4375;SDS011;2202;50.866;12.750;2023-07-16T13:45:03;6.90;;;3.23;;
4375;SDS011;2202;50.866;12.750;2023-07-16T13:47:31;2.70;;;2.27;;
4375;SDS011;2202;50.866;12.750;2023-07-16T13:49:58;4.33;;;2.97;;
4375;SDS011;2202;50.866;12.750;2023-07-16T13:52:25;4.07;;;2.60;;
4375;SDS011;2202;50.866;12.750;2023-07-16T13:54:52;7.43;;;3.23;;
4375;SDS011;2202;50.866;12.750;2023-07-16T13:57:19;4.07;;;3.40;;
4375;SDS011;2202;50.866;12.750;2023-07-16T13:59:47;6.90;;;3.20;;
4375;SDS011;2202;50.866;12.750;2023-07-16T14:02:14;10.03;;;2.73;;
4375;SDS011;2202;50.866;12.750;2023-07-16T14:04:41;5.50;;;2.97;;
4375;SDS011;2202;50.866;12.750;2023-07-16T14:07:08;6.00;;;3.30;;
4375;SDS011;2202;50.866;12.750;2023-07-16T14:09:35;4.10;;;3.30;;
4375;SDS011;2202;50.866;12.750;2023-07-16T14:12:02;5.97;;;3.30;;
4375;SDS011;2202;50.866;12.750;2023-07-16T14:14:29;3.23;;;2.50;;
4375;SDS011;2202;50.866;12.750;2023-07-16T14:16:57;4.50;;;2.90;;
4375;SDS011;2202;50.866;12.750;2023-07-16T14:19:24;4.50;;;2.57;;
4375;SDS011;2202;50.866;12.750;2023-07-16T14:21:51;2.80;;;2.50;;
4375;SDS011;2202;50.866;12.750;2023-07-16T14:24:18;5.37;;;2.77;;
4375;SDS011;2202;50.866;12.750;2023-07-16T14:26:45;4.27;;;2.60;;
4375;SDS011;2202;50.866;12.750;2023-07-16T14:29:12;3.83;;;2.57;;
4375;SDS011;2202;50.866;12.750;2023-07-16T14:31:39;3.37;;;3.03;;
4375;SDS011;2202;50.866;12.750;2023-07-16T14:34:07;3.80;;;2.43;;
4375;SDS011;2202;50.866;12.750;2023-07-16T14:36:34;5.57;;;2.40;;
4375;SDS011;2202;50.866;12.750;2023-07-16T14:39:00;3.83;;;2.77;;
4375;SDS011;2202;50.866;12.750;2023-07-16T14:41:28;2.97;;;2.07;;
4375;SDS011;2202;50.866;12.750;2023-07-16T14:43:55;4.03;;;2.53;;
4375;SDS011;2202;50.866;12.750;2023-07-16T14:46:22;5.67;;;3.00;;
4375;SDS011;2202;50.866;12.750;2023-07-16T14:48:50;5.30;;;3.00;;
4375;SDS011;2202;50.866;12.750;2023-07-16T14:51:22;4.50;;;2.73;;
4375;SDS011;2202;50.866;12.750;2023-07-16T14:53:49;3.10;;;2.67;;
4375;SDS011;2202;50.866;12.750;2023-07-16T14:56:17;4.40;;;2.77;;
4375;SDS011;2202;50.866;12.750;2023-07-16T14:58:44;3.40;;;2.90;;
4375;SDS011;2202;50.866;12.750;2023-07-16T15:01:11;3.83;;;2.60;;
4375;SDS011;2202;50.866;12.750;2023-07-16T15:03:38;5.33;;;2.70;;
4375;SDS011;2202;50.866;12.750;2023-07-16T15:06:06;6.13;;;2.90;;